Time;durP1;ratioP1;P1;durP2;ratioP2;P2;SDS_P1;SDS_P2;PMS_P1;PMS_P2;Temp;Humidity;BMP_temperature;BMP_pressure;BME280_temperature;BME280_humidity;BME280_pressure;Samples;Min_cycle;Max_cycle;Signal;HPM_P1;HPM_P2
2023/10/27 00:00:21;;;;;;;32.30;20.50;;;;;;;17.96;71.04;98264.67;108066;1254;74486;-63
2023/10/27 00:02:48;;;;;;;28.40;18.30;;;;;;;17.97;71.11;98267.95;108226;1254;70115;-65
2023/10/27 00:05:14;;;;;;;26.50;19.00;;;;;;;17.65;72.15;98276.48;108181;1256;73128;-65
2023/10/27 00:07:41;;;;;;;28.50;20.30;;;;;;;17.88;71.77;98272.20;108217;1254;61827;-67
2023/10/27 00:10:08;;;;;;;28.80;18.30;;;;;;;18.09;70.94;98267.02;108210;1254;60300;-65
2023/10/27 00:12:35;;;;;;;31.20;20.10;;;;;;;18.00;71.08;98266.39;108223;1256;73805;-67
2023/10/27 00:15:01;;;;;;;29.70;20.50;;;;;;;18.03;71.23;98260.85;108202;1254;60228;-66
2023/10/27 00:17:28;;;;;;;25.40;16.60;;;;;;;18.11;70.86;98258.23;108182;1254;72699;-66
2023/10/27 00:19:55;;;;;;;27.60;19.30;;;;;;;18.10;70.94;98255.67;108157;1256;60341;-64
2023/10/27 00:22:22;;;;;;;31.10;18.80;;;;;;;18.11;71.10;98257.95;108192;1254;60432;-65
2023/10/27 00:24:48;;;;;;;26.70;18.90;;;;;;;18.12;70.88;98254.40;108162;1256;73643;-64
2023/10/27 00:27:15;;;;;;;25.90;17.90;;;;;;;18.29;70.48;98257.95;108247;1254;69496;-64
2023/10/27 00:29:41;;;;;;;25.50;17.10;;;;;;;18.45;69.65;98254.20;108253;1253;72609;-65
2023/10/27 00:32:08;;;;;;;28.30;19.70;;;;;;;18.47;69.48;98249.75;108089;1254;61772;-65
2023/10/27 00:34:35;;;;;;;26.80;16.80;;;;;;;18.40;69.74;98255.63;108119;1257;60571;-66
2023/10/27 00:37:01;;;;;;;32.00;19.90;;;;;;;18.44;69.35;98260.41;108323;1257;60273;-66
2023/10/27 00:39:28;;;;;;;26.80;18.60;;;;;;;18.38;69.44;98261.08;108118;1258;70314;-62
2023/10/27 00:41:55;;;;;;;30.50;21.00;;;;;;;18.23;70.07;98265.30;108300;1256;60321;-64
2023/10/27 00:44:21;;;;;;;32.60;20.20;;;;;;;18.26;70.02;98262.89;108389;1254;60687;-65
2023/10/27 00:46:49;;;;;;;25.80;16.50;;;;;;;18.29;69.99;98258.77;108335;1252;60388;-67
2023/10/27 00:49:15;;;;;;;26.10;17.40;;;;;;;18.38;69.65;98257.28;108343;1254;73574;-67
2023/10/27 00:51:46;;;;;;;32.90;21.30;;;;;;;18.36;69.74;98257.54;108274;1254;70223;-66
2023/10/27 00:54:13;;;;;;;35.00;21.40;;;;;;;18.23;70.27;98254.63;108276;1251;72743;-66
2023/10/27 00:56:39;;;;;;;46.50;25.90;;;;;;;18.10;70.71;98251.61;108009;1254;61655;-66
2023/10/27 00:59:06;;;;;;;45.30;26.80;;;;;;;18.14;70.66;98249.42;108249;1253;60162;-67
2023/10/27 01:01:32;;;;;;;38.50;22.50;;;;;;;18.18;70.33;98244.56;108308;1256;72687;-64
2023/10/27 01:03:59;;;;;;;43.40;27.00;;;;;;;18.19;70.19;98244.27;108310;1254;69986;-66
2023/10/27 01:06:26;;;;;;;48.70;27.30;;;;;;;18.10;70.49;98240.98;108355;1254;73189;-66
2023/10/27 01:08:53;;;;;;;42.30;23.90;;;;;;;18.14;70.24;98242.49;108098;1254;61776;-66
2023/10/27 01:11:19;;;;;;;36.60;23.30;;;;;;;18.16;69.98;98248.38;108300;1255;60290;-65
2023/10/27 01:13:50;;;;;;;28.70;18.20;;;;;;;18.16;69.61;98247.45;107996;1259;60383;-64
2023/10/27 01:16:17;;;;;;;;;;;;;;;18.12;69.60;98253.20;108104;1254;70430;-65
2023/10/27 01:18:43;;;;;;;31.10;19.30;;;;;;;18.21;69.16;98250.55;108262;1253;60495;-66
2023/10/27 01:21:10;;;;;;;36.40;22.70;;;;;;;18.22;69.04;98245.31;108052;1254;60404;-66
2023/10/27 01:23:36;;;;;;;43.30;24.30;;;;;;;18.26;68.85;98246.15;108240;1256;60947;-66
2023/10/27 01:26:03;;;;;;;29.90;19.70;;;;;;;18.33;68.50;98247.30;108271;1254;60392;-65
2023/10/27 01:28:30;;;;;;;36.80;23.30;;;;;;;18.04;69.07;98252.61;108252;1253;70337;-66
2023/10/27 01:30:57;;;;;;;26.40;17.30;;;;;;;17.82;69.73;98255.92;108178;1254;72611;-66
2023/10/27 01:33:24;;;;;;;30.60;20.80;;;;;;;17.78;69.53;98252.36;108043;1254;59236;-65
2023/10/27 01:35:50;;;;;;;36.30;24.10;;;;;;;17.66;69.91;98255.53;108212;1253;60354;-64
2023/10/27 01:38:17;;;;;;;32.00;19.10;;;;;;;17.59;70.01;98253.66;108134;1256;73528;-66
2023/10/27 01:40:43;;;;;;;32.00;21.70;;;;;;;17.53;70.10;98251.30;108030;1254;70608;-66
2023/10/27 01:43:10;;;;;;;33.30;21.60;;;;;;;17.51;70.11;98253.39;108142;1254;72417;-66
2023/10/27 01:45:37;;;;;;;25.10;16.80;;;;;;;17.47;70.05;98262.52;108097;1253;61868;-65
2023/10/27 01:48:04;;;;;;;34.00;22.00;;;;;;;17.37;70.18;98257.76;108274;1254;60322;-65
2023/10/27 01:50:31;;;;;;;26.80;19.10;;;;;;;17.37;69.97;98260.55;108218;1253;73933;-66
2023/10/27 01:52:57;;;;;;;35.30;23.20;;;;;;;17.39;69.73;98261.25;108218;1257;60318;-65
2023/10/27 01:55:24;;;;;;;37.80;24.40;;;;;;;17.39;69.80;98261.95;108177;1254;60376;-65
2023/10/27 01:57:51;;;;;;;32.80;19.10;;;;;;;17.33;70.04;98265.02;108071;1253;62118;-66
2023/10/27 02:00:17;;;;;;;36.30;23.60;;;;;;;17.21;70.44;98266.71;108020;1254;60383;-66
2023/10/27 02:02:44;;;;;;;40.70;24.60;;;;;;;17.13;70.60;98267.40;108222;1253;73719;-66
2023/10/27 02:05:11;;;;;;;31.20;21.00;;;;;;;17.15;70.45;98269.77;108073;1253;70930;-67
2023/10/27 02:07:37;;;;;;;34.40;22.50;;;;;;;17.13;70.54;98269.44;108202;1253;72944;-66
2023/10/27 02:10:05;;;;;;;26.50;17.60;;;;;;;17.17;70.29;98270.25;108170;1254;60475;-66
2023/10/27 02:12:31;;;;;;;30.20;20.50;;;;;;;17.28;69.73;98269.43;108220;1254;60396;-66
2023/10/27 02:14:58;;;;;;;28.30;18.10;;;;;;;17.26;69.71;98270.44;108168;1256;60421;-66
2023/10/27 02:17:25;;;;;;;32.10;19.10;;;;;;;17.30;69.36;98266.20;108074;1258;70305;-66
2023/10/27 02:19:54;;;;;;;31.10;20.70;;;;;;;17.25;69.16;98271.48;108165;1254;72500;-64
2023/10/27 02:22:21;;;;;;;28.30;17.80;;;;;;;17.20;69.15;98275.50;108057;1255;61882;-66
2023/10/27 02:24:48;;;;;;;28.50;19.80;;;;;;;17.19;69.13;98272.52;108077;1254;60351;-67
2023/10/27 02:27:14;;;;;;;28.90;19.00;;;;;;;17.20;68.97;98270.35;108179;1254;74072;-66
2023/10/27 02:29:41;;;;;;;28.40;17.90;;;;;;;17.12;69.03;98262.20;108210;1254;70621;-65
2023/10/27 02:32:08;;;;;;;30.50;21.00;;;;;;;17.11;69.02;98258.23;108272;1254;72406;-65
2023/10/27 02:34:34;;;;;;;24.90;17.40;;;;;;;16.94;69.74;98257.70;108238;1254;60385;-67
2023/10/27 02:37:01;;;;;;;36.10;19.20;;;;;;;16.89;70.04;98258.85;108112;1252;60210;-66
2023/10/27 02:39:28;;;;;;;28.60;18.60;;;;;;;16.96;70.17;98262.80;108258;1254;74117;-65
2023/10/27 02:41:55;;;;;;;20.00;14.40;;;;;;;17.01;69.92;98264.15;108240;1254;70170;-66
2023/10/27 02:44:22;;;;;;;28.00;18.80;;;;;;;17.05;69.78;98261.67;108085;1254;72664;-67
2023/10/27 02:46:49;;;;;;;20.10;14.80;;;;;;;17.08;69.56;98262.64;108361;1253;61762;-66
2023/10/27 02:49:15;;;;;;;25.70;17.50;;;;;;;17.12;69.32;98268.58;108392;1254;60245;-67
2023/10/27 02:51:42;;;;;;;30.20;17.60;;;;;;;17.15;69.19;98276.86;108252;1252;60421;-66
2023/10/27 02:56:07;;;;;;;30.70;19.90;;;;;;;15.17;77.77;98280.90;104917;1289;601547;-66
2023/10/27 02:58:35;;;;;;;;;;;;;;;15.93;74.66;98283.95;107274;1267;61709;-66
2023/10/27 03:01:09;;;;;;;29.70;19.60;;;;;;;16.13;73.74;98284.88;107325;1264;59844;-65
2023/10/27 03:03:37;;;;;;;26.50;18.70;;;;;;;16.22;73.21;98290.48;107242;1264;72251;-66
2023/10/27 03:06:05;;;;;;;22.90;15.20;;;;;;;16.28;72.68;98288.11;107278;1264;70234;-66
2023/10/27 03:08:33;;;;;;;26.70;17.50;;;;;;;16.20;72.65;98288.19;107095;1269;217928;-67
2023/10/27 03:11:00;;;;;;;24.70;15.80;;;;;;;16.11;72.87;98286.45;107308;1264;61667;-67
2023/10/27 03:13:27;;;;;;;23.80;15.70;;;;;;;16.04;72.92;98286.03;107423;1264;59121;-66
2023/10/27 03:16:00;;;;;;;30.80;16.20;;;;;;;15.97;72.96;98285.04;107392;1264;70969;-65
2023/10/27 03:18:27;;;;;;;22.60;14.90;;;;;;;16.01;72.79;98285.07;107443;1264;70303;-66
2023/10/27 03:20:59;;;;;;;24.50;17.10;;;;;;;15.96;72.76;98280.90;107502;1262;75479;-67
2023/10/27 03:23:27;;;;;;;25.30;15.50;;;;;;;16.00;72.55;98274.70;107417;1263;60410;-67
2023/10/27 03:25:55;;;;;;;20.10;15.50;;;;;;;15.95;72.63;98267.16;107392;1264;62908;-67
2023/10/27 03:28:22;;;;;;;21.90;15.40;;;;;;;15.94;72.63;98271.37;107553;1261;71278;-67
2023/10/27 03:30:49;;;;;;;19.00;12.80;;;;;;;15.77;72.90;98277.78;107577;1261;70596;-66
2023/10/27 03:33:17;;;;;;;18.20;12.90;;;;;;;15.76;72.81;98277.89;107552;1264;70570;-66
2023/10/27 03:35:46;;;;;;;24.00;15.90;;;;;;;15.69;72.62;98276.48;107603;1262;60643;-67
2023/10/27 03:38:14;;;;;;;22.70;15.20;;;;;;;15.61;72.94;98282.30;107611;1261;60138;-65
2023/10/27 03:40:43;;;;;;;22.30;15.20;;;;;;;15.50;73.32;98281.30;107553;1261;73020;-66
2023/10/27 03:43:10;;;;;;;23.20;15.70;;;;;;;15.49;73.38;98280.92;107581;1260;70532;-66
2023/10/27 03:45:38;;;;;;;17.30;12.80;;;;;;;15.55;73.02;98280.59;107462;1261;71683;-66
2023/10/27 03:48:05;;;;;;;28.30;17.00;;;;;;;15.49;73.18;98279.84;107558;1264;61674;-66
2023/10/27 03:50:34;;;;;;;20.70;14.00;;;;;;;15.44;73.24;98283.28;107543;1261;60016;-67
2023/10/27 03:53:02;;;;;;;23.70;14.90;;;;;;;15.42;73.10;98282.04;107491;1261;72160;-66
2023/10/27 03:55:30;;;;;;;22.90;16.20;;;;;;;15.40;73.00;98282.95;107586;1261;70316;-66
2023/10/27 03:58:16;;;;;;;20.20;13.40;;;;;;;15.33;73.01;98277.70;107606;1261;71510;-66
2023/10/27 04:00:45;;;;;;;19.10;14.10;;;;;;;15.27;73.29;98279.57;107672;1260;61669;-66
2023/10/27 04:03:12;;;;;;;21.00;15.30;;;;;;;15.26;73.21;98272.98;107538;1266;59958;-65
2023/10/27 04:05:40;;;;;;;21.10;13.00;;;;;;;15.32;72.57;98263.79;107777;1257;72998;-66
2023/10/27 04:08:07;;;;;;;23.00;14.40;;;;;;;15.24;72.48;98263.45;107747;1257;70197;-65
2023/10/27 04:10:35;;;;;;;19.30;13.00;;;;;;;15.12;72.88;98269.20;107914;1257;72686;-64
2023/10/27 04:13:04;;;;;;;30.10;16.80;;;;;;;15.10;72.89;98271.19;107931;1257;60393;-65
2023/10/27 04:15:31;;;;;;;48.90;16.50;;;;;;;14.99;72.67;98270.98;107872;1257;59525;-66
2023/10/27 04:18:00;;;;;;;38.90;14.20;;;;;;;14.80;72.91;98271.01;107863;1258;71800;-66
2023/10/27 04:20:27;;;;;;;24.10;15.60;;;;;;;14.76;72.89;98277.17;107845;1262;70170;-65
2023/10/27 04:22:55;;;;;;;26.10;14.90;;;;;;;14.72;73.00;98281.80;107837;1257;71173;-61
2023/10/27 04:25:23;;;;;;;24.20;15.70;;;;;;;14.71;73.23;98285.55;107752;1256;61677;-66
2023/10/27 04:27:50;;;;;;;26.40;17.20;;;;;;;14.67;73.31;98285.23;107792;1257;59955;-66
2023/10/27 04:30:18;;;;;;;40.20;15.10;;;;;;;14.60;73.66;98286.52;107864;1255;71591;-66
2023/10/27 04:32:45;;;;;;;33.60;17.20;;;;;;;14.63;73.60;98285.69;108329;1251;69904;-66
2023/10/27 04:35:13;;;;;;;29.10;17.50;;;;;;;14.65;73.56;98284.61;108276;1254;72531;-67
2023/10/27 04:37:41;;;;;;;26.70;16.70;;;;;;;14.75;73.52;98286.30;108220;1254;61615;-66
2023/10/27 04:40:10;;;;;;;22.10;15.90;;;;;;;14.84;73.63;98294.35;108261;1256;59077;-67
2023/10/27 04:42:38;;;;;;;26.40;17.20;;;;;;;14.82;74.35;98297.02;108396;1251;72453;-66
2023/10/27 04:45:07;;;;;;;26.00;16.70;;;;;;;14.87;74.50;98289.01;108201;1251;69872;-66
2023/10/27 04:47:34;;;;;;;24.20;17.10;;;;;;;14.96;74.54;98286.84;108255;1254;71471;-66
2023/10/27 04:50:02;;;;;;;20.70;14.40;;;;;;;14.98;74.90;98292.70;108254;1252;61743;-66
2023/10/27 04:52:29;;;;;;;25.20;16.70;;;;;;;15.14;74.64;98289.21;108263;1251;59121;-66
2023/10/27 04:54:58;;;;;;;28.90;15.70;;;;;;;15.16;74.51;98291.88;108320;1251;73027;-66
2023/10/27 04:57:25;;;;;;;23.10;15.80;;;;;;;15.09;74.67;98297.05;108321;1251;69423;-67
2023/10/27 04:59:53;;;;;;;24.10;16.40;;;;;;;15.05;74.79;98294.73;108287;1254;71475;-66
2023/10/27 05:02:20;;;;;;;20.00;13.70;;;;;;;14.94;74.77;98298.66;108312;1251;61734;-67
2023/10/27 05:04:47;;;;;;;20.40;14.90;;;;;;;14.78;74.78;98302.08;108335;1251;59464;-67
2023/10/27 05:07:15;;;;;;;21.20;14.50;;;;;;;14.77;74.56;98300.94;108245;1251;72505;-67
2023/10/27 05:09:42;;;;;;;22.80;13.10;;;;;;;14.80;74.24;98303.35;108287;1251;70287;-66
2023/10/27 05:12:10;;;;;;;21.00;14.90;;;;;;;14.78;73.86;98298.95;108269;1252;72742;-66
2023/10/27 05:14:37;;;;;;;38.00;13.30;;;;;;;14.75;73.64;98297.80;108278;1253;61671;-66
2023/10/27 05:17:05;;;;;;;23.40;15.00;;;;;;;14.74;73.44;98293.32;108265;1251;60014;-66
2023/10/27 05:19:33;;;;;;;19.80;14.60;;;;;;;14.69;73.51;98294.08;108304;1251;71806;-66
2023/10/27 05:22:04;;;;;;;18.70;13.70;;;;;;;14.65;73.87;98294.34;108348;1251;69256;-67
2023/10/27 05:24:32;;;;;;;25.60;15.90;;;;;;;14.62;74.24;98299.17;108289;1254;71581;-67
2023/10/27 05:27:00;;;;;;;20.50;14.00;;;;;;;14.64;74.14;98306.67;108254;1251;62591;-67
2023/10/27 05:29:27;;;;;;;21.50;13.50;;;;;;;14.64;74.21;98310.20;108258;1252;59116;-67
2023/10/27 05:31:55;;;;;;;25.80;17.00;;;;;;;14.63;74.50;98304.27;108315;1251;73192;-67
2023/10/27 05:34:22;;;;;;;22.00;14.90;;;;;;;14.60;74.88;98300.40;108416;1256;69966;-66
2023/10/27 05:36:50;;;;;;;27.80;17.30;;;;;;;14.62;75.53;98294.40;108334;1251;72721;-67
2023/10/27 05:39:19;;;;;;;29.20;18.90;;;;;;;14.72;75.74;98300.67;108312;1254;60378;-67
2023/10/27 05:41:47;;;;;;;38.10;19.60;;;;;;;14.92;76.42;98303.96;108358;1251;60091;-66
2023/10/27 05:44:14;;;;;;;32.20;21.10;;;;;;;15.41;77.46;98306.19;108300;1251;71815;-67
2023/10/27 05:46:41;;;;;;;27.30;18.60;;;;;;;15.96;77.36;98305.09;108352;1251;69959;-67
2023/10/27 05:49:09;;;;;;;25.60;18.50;;;;;;;16.55;76.48;98317.04;108221;1251;72534;-66
2023/10/27 05:51:36;;;;;;;25.00;17.30;;;;;;;16.92;75.55;98324.35;108286;1256;60394;-66
2023/10/27 05:54:05;;;;;;;22.50;16.90;;;;;;;17.35;74.19;98332.10;108271;1251;59944;-67
2023/10/27 05:56:32;;;;;;;23.90;18.60;;;;;;;17.77;74.70;98329.71;108307;1251;73018;-68
2023/10/27 05:58:59;;;;;;;22.20;15.40;;;;;;;18.50;74.45;98328.87;108252;1251;69914;-66
2023/10/27 06:01:27;;;;;;;24.60;14.80;;;;;;;19.33;73.75;98328.27;108340;1254;71795;-66
2023/10/27 06:03:57;;;;;;;21.20;14.30;;;;;;;19.96;72.83;98326.78;108245;1251;61408;-67
2023/10/27 06:06:26;;;;;;;21.00;12.40;;;;;;;20.16;69.71;98319.48;108330;1251;60147;-66
2023/10/27 06:08:53;;;;;;;24.80;13.90;;;;;;;20.23;67.24;98319.96;108361;1251;73021;-66
2023/10/27 06:11:21;;;;;;;18.50;13.10;;;;;;;20.21;64.60;98319.15;108255;1251;70304;-67
2023/10/27 06:13:49;;;;;;;16.10;12.20;;;;;;;19.93;63.56;98317.09;108340;1254;71477;-65
2023/10/27 06:16:16;;;;;;;25.50;15.60;;;;;;;19.73;63.05;98312.77;108288;1251;59619;-67
2023/10/27 06:18:43;;;;;;;26.90;15.70;;;;;;;19.56;63.44;98320.02;108346;1256;59120;-66
2023/10/27 06:21:11;;;;;;;20.50;14.10;;;;;;;19.66;63.92;98321.89;108339;1251;72484;-68
2023/10/27 06:23:38;;;;;;;22.90;15.60;;;;;;;20.24;64.87;98315.48;108323;1256;69911;-67
2023/10/27 06:26:05;;;;;;;24.00;13.80;;;;;;;21.01;64.87;98318.34;108296;1252;72960;-66
2023/10/27 06:28:34;;;;;;;22.50;13.70;;;;;;;21.71;62.92;98320.36;108239;1253;60367;-66
2023/10/27 06:31:03;;;;;;;21.00;13.40;;;;;;;22.34;58.56;98330.46;108320;1251;59503;-66
2023/10/27 06:33:32;;;;;;;21.40;12.60;;;;;;;22.94;56.79;98323.70;108307;1251;73065;-68
2023/10/27 06:36:00;;;;;;;19.10;11.60;;;;;;;23.65;54.81;98323.42;108282;1256;68247;-66
2023/10/27 06:38:27;;;;;;;19.20;11.20;;;;;;;24.24;51.97;98321.79;108357;1256;72690;-67
2023/10/27 06:40:55;;;;;;;15.70;10.30;;;;;;;24.74;51.73;98317.14;108326;1251;61726;-66
2023/10/27 06:43:22;;;;;;;16.40;9.90;;;;;;;25.10;50.61;98318.86;108309;1251;59473;-66
2023/10/27 06:45:50;;;;;;;14.80;9.60;;;;;;;25.59;48.54;98320.05;108317;1251;73137;-67
2023/10/27 06:48:17;;;;;;;17.70;11.50;;;;;;;25.75;46.84;98321.15;108355;1256;70282;-67
2023/10/27 06:50:45;;;;;;;16.60;10.80;;;;;;;25.56;45.62;98320.64;108263;1254;71926;-67
2023/10/27 06:53:12;;;;;;;17.00;12.00;;;;;;;25.19;45.62;98329.46;108246;1256;60384;-67
2023/10/27 06:55:40;;;;;;;16.00;11.70;;;;;;;24.88;46.10;98330.30;108256;1251;60042;-66
2023/10/27 06:58:08;;;;;;;14.60;10.60;;;;;;;24.75;46.94;98328.27;108349;1251;73082;-66
2023/10/27 07:00:36;;;;;;;19.00;13.00;;;;;;;24.51;46.68;98322.73;108263;1251;70531;-67
2023/10/27 07:03:03;;;;;;;18.60;11.80;;;;;;;24.16;47.12;98328.15;108241;1256;72679;-66
2023/10/27 07:05:44;;;;;;;21.30;12.60;;;;;;;23.77;48.22;98333.78;108352;1251;60484;-67
2023/10/27 07:08:11;;;;;;;20.80;13.10;;;;;;;23.47;48.71;98332.55;108297;1251;60253;-67
2023/10/27 07:10:42;;;;;;;17.00;12.20;;;;;;;23.30;49.78;98332.25;108284;1251;74131;-67
2023/10/27 07:13:10;;;;;;;20.40;13.40;;;;;;;23.27;50.07;98329.69;108304;1256;68951;-66
2023/10/27 07:15:37;;;;;;;22.00;12.80;;;;;;;23.31;50.08;98329.42;108323;1251;72063;-66
2023/10/27 07:18:05;;;;;;;18.20;12.20;;;;;;;23.31;50.54;98335.50;108314;1251;61643;-67
2023/10/27 07:20:32;;;;;;;19.10;11.50;;;;;;;23.47;50.33;98333.77;108316;1251;60573;-67
2023/10/27 07:22:59;;;;;;;14.50;10.70;;;;;;;23.65;50.06;98338.46;108255;1258;71974;-67
2023/10/27 07:25:29;;;;;;;18.00;10.00;;;;;;;23.92;49.47;98339.49;108248;1256;70559;-66
2023/10/27 07:27:57;;;;;;;16.90;11.00;;;;;;;24.36;48.78;98337.91;108238;1256;71649;-65
2023/10/27 07:30:24;;;;;;;17.20;10.20;;;;;;;24.62;48.64;98338.11;108305;1252;60523;-67
2023/10/27 07:32:52;;;;;;;17.50;10.60;;;;;;;24.74;47.79;98340.26;108240;1256;60421;-67
2023/10/27 07:35:19;;;;;;;15.90;10.30;;;;;;;24.75;47.70;98346.73;108334;1251;73955;-66
2023/10/27 07:37:46;;;;;;;17.90;10.40;;;;;;;24.70;48.02;98347.77;108215;1256;70126;-66
2023/10/27 07:40:15;;;;;;;15.50;10.60;;;;;;;24.59;47.42;98347.48;108292;1256;72688;-66
2023/10/27 07:42:43;;;;;;;18.50;10.00;;;;;;;24.41;48.12;98348.64;108248;1255;60908;-67
2023/10/27 07:45:10;;;;;;;22.30;10.60;;;;;;;24.32;48.43;98352.05;108288;1251;60972;-66
2023/10/27 07:47:37;;;;;;;17.90;11.20;;;;;;;24.27;48.13;98358.23;108360;1256;73852;-68
2023/10/27 07:50:06;;;;;;;18.80;9.70;;;;;;;24.42;48.61;98357.52;108263;1251;70275;-67
2023/10/27 07:52:33;;;;;;;15.30;10.80;;;;;;;24.87;48.11;98360.02;108264;1251;71473;-67
2023/10/27 07:55:01;;;;;;;15.90;10.70;;;;;;;25.44;47.11;98363.27;108381;1251;61652;-67
2023/10/27 07:57:28;;;;;;;19.20;11.80;;;;;;;25.93;45.68;98365.24;108259;1251;60249;-67
2023/10/27 07:59:56;;;;;;;15.80;9.70;;;;;;;26.51;44.90;98365.49;108271;1256;74065;-66
2023/10/27 08:02:23;;;;;;;18.20;10.00;;;;;;;27.07;43.22;98365.45;108311;1257;68695;-67
2023/10/27 08:04:51;;;;;;;20.50;11.70;;;;;;;27.57;41.79;98364.54;108259;1254;71463;-67
2023/10/27 08:07:19;;;;;;;14.20;9.60;;;;;;;27.92;40.89;98363.02;108332;1254;60523;-68
2023/10/27 08:09:46;;;;;;;16.50;9.40;;;;;;;28.35;39.69;98363.55;108354;1251;58971;-67
2023/10/27 08:12:15;;;;;;;14.50;9.00;;;;;;;28.56;39.38;98361.15;108275;1253;73934;-69
2023/10/27 08:14:44;;;;;;;15.60;9.50;;;;;;;28.81;38.81;98359.77;108299;1251;70682;-67
2023/10/27 08:17:12;;;;;;;15.70;8.10;;;;;;;29.13;37.93;98356.96;108243;1251;71487;-67
2023/10/27 08:19:39;;;;;;;16.30;8.60;;;;;;;29.32;37.73;98356.82;108237;1257;60280;-67
2023/10/27 08:22:07;;;;;;;14.10;7.70;;;;;;;29.86;37.42;98356.94;108287;1256;60501;-67
2023/10/27 08:24:36;;;;;;;12.50;7.10;;;;;;;30.07;35.81;98363.19;108249;1251;72578;-67
2023/10/27 08:27:04;;;;;;;16.20;7.40;;;;;;;30.40;35.88;98368.48;108269;1256;69598;-69
2023/10/27 08:29:31;;;;;;;13.00;7.60;;;;;;;30.94;35.03;98369.14;108290;1256;72710;-67
2023/10/27 08:31:58;;;;;;;11.90;7.00;;;;;;;31.09;34.02;98368.14;108303;1251;60277;-68
2023/10/27 08:34:26;;;;;;;7.40;4.90;;;;;;;31.00;33.43;98365.02;108296;1256;59174;-67
2023/10/27 08:36:53;;;;;;;9.00;4.80;;;;;;;30.89;33.57;98367.17;108350;1251;73117;-68
2023/10/27 08:39:21;;;;;;;10.00;5.50;;;;;;;31.08;33.64;98369.08;108258;1251;69490;-66
2023/10/27 08:41:48;;;;;;;11.20;5.20;;;;;;;31.45;33.24;98370.18;108204;1251;72683;-68
2023/10/27 08:44:17;;;;;;;8.20;4.70;;;;;;;31.82;32.43;98366.72;108170;1254;60325;-67
2023/10/27 08:46:53;;;;;;;13.90;6.20;;;;;;;32.08;31.89;98367.21;108250;1251;61164;-68
2023/10/27 08:49:21;;;;;;;8.60;4.80;;;;;;;32.17;31.77;98371.55;108109;1257;72504;-68
2023/10/27 08:51:49;;;;;;;10.50;5.20;;;;;;;32.30;31.41;98368.61;108263;1257;69645;-66
2023/10/27 08:54:16;;;;;;;8.90;5.00;;;;;;;32.60;31.17;98376.98;108290;1255;71498;-68
2023/10/27 08:56:44;;;;;;;10.80;4.50;;;;;;;32.98;30.37;98380.36;108346;1251;60533;-68
2023/10/27 08:59:11;;;;;;;10.90;4.60;;;;;;;32.94;29.57;98387.10;108253;1251;60330;-68
2023/10/27 09:01:38;;;;;;;7.40;4.40;;;;;;;32.70;29.67;98388.89;108290;1251;72909;-67
2023/10/27 09:04:10;;;;;;;5.30;3.50;;;;;;;32.31;30.00;98386.48;108253;1257;71106;-69
2023/10/27 09:06:39;;;;;;;8.10;4.10;;;;;;;32.41;30.41;98386.38;108321;1255;72741;-67
2023/10/27 09:09:07;;;;;;;8.00;3.90;;;;;;;32.73;29.78;98391.52;108414;1254;60303;-67
2023/10/27 09:11:40;;;;;;;5.70;3.20;;;;;;;32.51;29.55;98395.81;108335;1251;62253;-67
2023/10/27 09:14:32;;;;;;;5.10;3.50;;;;;;;31.71;29.92;98394.83;108300;1251;73029;-68
2023/10/27 09:17:07;;;;;;;5.10;3.20;;;;;;;30.92;30.91;98394.59;108383;1251;70444;-67
2023/10/27 09:19:35;;;;;;;6.50;2.90;;;;;;;30.35;30.96;98394.63;108249;1251;71879;-66
2023/10/27 09:22:13;;;;;;;4.40;2.70;;;;;;;30.07;31.39;98395.21;108331;1251;60292;-67
2023/10/27 09:24:41;;;;;;;6.10;2.50;;;;;;;30.24;31.07;98388.77;108202;1251;59942;-68
2023/10/27 09:27:08;;;;;;;6.90;3.00;;;;;;;30.26;31.00;98386.50;108346;1256;72008;-68
2023/10/27 09:29:39;;;;;;;5.30;2.30;;;;;;;30.44;30.71;98384.59;108254;1251;70142;-67
2023/10/27 09:32:24;;;;;;;4.60;2.80;;;;;;;30.14;30.66;98388.59;108284;1251;72583;-67
2023/10/27 09:35:09;;;;;;;7.20;3.30;;;;;;;29.71;31.11;98383.61;108330;1251;61929;-66
2023/10/27 09:37:41;;;;;;;7.80;3.30;;;;;;;29.62;31.57;98389.15;108304;1251;60107;-69
2023/10/27 09:40:09;;;;;;;7.30;3.00;;;;;;;29.87;31.41;98392.70;108312;1251;72630;-67
2023/10/27 09:42:38;;;;;;;6.80;3.00;;;;;;;30.00;31.12;98402.00;108242;1251;69674;-67
2023/10/27 09:45:12;;;;;;;5.10;3.00;;;;;;;30.09;30.62;98401.62;108275;1251;74414;-68
2023/10/27 09:47:46;;;;;;;5.90;3.00;;;;;;;29.98;30.67;98399.60;108246;1254;60350;-67
2023/10/27 09:50:15;;;;;;;4.00;2.70;;;;;;;30.34;30.37;98389.13;108286;1256;60354;-67
2023/10/27 09:52:46;;;;;;;6.60;3.30;;;;;;;30.46;29.79;98377.21;108329;1251;73075;-65
2023/10/27 09:55:14;;;;;;;6.50;3.00;;;;;;;30.54;29.91;98384.51;108310;1251;69803;-68
2023/10/27 09:57:44;;;;;;;6.50;2.70;;;;;;;30.79;30.04;98378.50;108243;1256;75176;-65
2023/10/27 10:00:14;;;;;;;6.60;2.70;;;;;;;31.01;29.06;98369.92;108298;1254;60408;-67
2023/10/27 10:02:42;;;;;;;3.50;2.60;;;;;;;31.27;28.96;98372.92;108215;1251;60966;-67
2023/10/27 10:05:11;;;;;;;3.90;2.60;;;;;;;31.16;28.57;98374.55;108286;1251;74321;-68
2023/10/27 10:07:52;;;;;;;6.20;2.00;;;;;;;30.99;28.85;98372.59;108204;1251;68757;-66
2023/10/27 10:10:26;;;;;;;6.40;2.70;;;;;;;30.92;28.64;98364.80;108244;1251;71892;-66
2023/10/27 10:13:00;;;;;;;7.80;2.60;;;;;;;31.35;28.69;98360.41;108283;1251;60424;-67
2023/10/27 10:15:29;;;;;;;3.30;2.10;;;;;;;31.89;27.14;98358.88;108285;1256;60326;-67
2023/10/27 10:17:58;;;;;;;3.30;2.10;;;;;;;32.11;26.84;98352.61;108299;1251;72966;-68
2023/10/27 10:20:41;;;;;;;3.10;2.00;;;;;;;32.26;26.31;98350.14;108242;1251;70437;-69
2023/10/27 10:23:09;;;;;;;4.40;2.20;;;;;;;31.84;26.45;98353.60;108304;1251;72790;-67
2023/10/27 10:25:36;;;;;;;3.70;1.90;;;;;;;31.81;26.51;98351.73;108254;1251;60233;-68
2023/10/27 10:28:07;;;;;;;3.90;1.70;;;;;;;31.85;26.20;98350.04;108153;1251;60191;-66
2023/10/27 10:30:38;;;;;;;;;;;;;;;31.22;26.10;98347.52;108135;1253;75352;-67
2023/10/27 10:33:25;;;;;;;4.80;1.90;;;;;;;30.43;26.52;98344.15;108119;1254;69319;-67
2023/10/27 10:36:22;;;;;;;3.40;2.00;;;;;;;30.19;27.49;98341.21;108038;1259;73409;-68
2023/10/27 10:38:49;;;;;;;7.00;2.00;;;;;;;30.47;27.32;98347.03;108072;1254;60664;-68
2023/10/27 10:41:18;;;;;;;5.40;2.50;;;;;;;30.44;27.03;98348.20;108135;1254;60313;-68
2023/10/27 10:44:15;;;;;;;4.00;2.00;;;;;;;30.28;27.30;98347.48;108184;1254;72843;-67
2023/10/27 10:46:44;;;;;;;4.00;2.00;;;;;;;30.14;27.41;98339.52;108210;1254;69987;-67
2023/10/27 10:49:12;;;;;;;3.20;2.00;;;;;;;30.22;27.47;98341.76;108200;1254;71470;-67
2023/10/27 10:51:40;;;;;;;5.60;2.00;;;;;;;30.36;27.14;98345.30;108285;1254;60485;-68
2023/10/27 10:54:13;;;;;;;4.30;1.70;;;;;;;30.47;26.93;98343.61;108202;1253;60638;-66
2023/10/27 10:56:42;;;;;;;4.70;2.30;;;;;;;30.68;26.97;98336.38;108218;1254;73692;-66
2023/10/27 10:59:19;;;;;;;5.00;2.20;;;;;;;30.84;26.91;98326.60;108210;1257;70224;-66
2023/10/27 11:01:54;;;;;;;4.00;2.20;;;;;;;31.00;26.84;98326.76;108192;1254;74864;-68
2023/10/27 11:04:28;;;;;;;4.20;2.20;;;;;;;31.15;26.74;98327.34;108190;1254;60933;-68
2023/10/27 11:07:08;;;;;;;4.10;2.10;;;;;;;31.38;26.64;98326.02;108211;1252;60098;-68
2023/10/27 11:09:36;;;;;;;4.40;2.00;;;;;;;31.35;26.25;98324.46;108144;1254;74297;-69
2023/10/27 11:12:03;;;;;;;7.40;2.30;;;;;;;31.41;26.38;98320.83;108166;1253;70439;-68
2023/10/27 11:14:40;;;;;;;2.70;2.00;;;;;;;31.05;26.31;98320.55;108096;1254;72387;-68
2023/10/27 11:17:11;;;;;;;2.90;1.90;;;;;;;30.33;27.39;98322.41;108117;1257;60420;-67
2023/10/27 11:19:53;;;;;;;4.30;2.30;;;;;;;30.08;27.84;98318.73;108142;1253;60181;-68
2023/10/27 11:22:25;;;;;;;2.20;1.90;;;;;;;29.18;29.02;98321.73;108171;1254;73651;-67